createdAt,value
2023-05-01T00:00:38.217Z,46.57
2023-05-01T00:01:38.215Z,47.05
2023-05-01T00:02:38.279Z,46.73
2023-05-01T00:03:38.288Z,46.08
2023-05-01T00:04:38.216Z,46.57
2023-05-01T00:05:38.173Z,46.41
2023-05-01T00:06:38.251Z,46.57
2023-05-01T00:07:38.144Z,46.08
2023-05-01T00:08:38.132Z,45.92
2023-05-01T00:09:38.141Z,46.73
2023-05-01T00:10:38.143Z,47.37
2023-05-01T00:11:38.121Z,47.37
2023-05-01T00:12:38.107Z,47.37
2023-05-01T00:13:38.103Z,46.89
2023-05-01T00:14:38.101Z,46.73
2023-05-01T00:15:38.092Z,47.21
2023-05-01T00:16:38.145Z,47.05
2023-05-01T00:17:38.111Z,47.05
2023-05-01T00:18:38.076Z,47.53
2023-05-01T00:19:38.057Z,47.05
2023-05-01T00:20:38.056Z,47.37
2023-05-01T00:21:38.052Z,47.37
2023-05-01T00:22:38.036Z,46.25
2023-05-01T00:23:38.058Z,47.05
2023-05-01T00:24:38.034Z,47.05
2023-05-01T00:25:38.024Z,47.05
2023-05-01T00:26:38.001Z,46.57
2023-05-01T00:27:38.003Z,46.41
2023-05-01T00:28:38.041Z,46.41
2023-05-01T00:29:37.999Z,46.73
2023-05-01T00:30:38.010Z,46.57
2023-05-01T00:31:38.008Z,46.25
2023-05-01T00:32:37.974Z,46.41
2023-05-01T00:33:37.962Z,47.05
2023-05-01T00:34:37.970Z,47.21
2023-05-01T00:35:38.062Z,47.21
2023-05-01T00:36:37.946Z,47.05
2023-05-01T00:37:37.942Z,47.21
2023-05-01T00:38:37.928Z,47.53
2023-05-01T00:39:37.936Z,46.73
2023-05-01T00:40:37.945Z,47.05
2023-05-01T00:41:37.995Z,47.21
2023-05-01T00:42:37.902Z,47.05
2023-05-01T00:43:37.892Z,46.73
2023-05-01T00:44:37.910Z,46.89
2023-05-01T00:45:37.972Z,46.89
2023-05-01T00:46:37.906Z,47.05
2023-05-01T00:47:37.941Z,47.37
2023-05-01T00:48:37.868Z,47.70
2023-05-01T00:49:37.851Z,47.86
2023-05-01T00:50:37.855Z,47.53
2023-05-01T00:51:38.096Z,47.70
2023-05-01T00:52:37.839Z,46.89
2023-05-01T00:53:37.818Z,47.70
2023-05-01T00:54:37.828Z,47.70
2023-05-01T00:55:37.813Z,47.37
2023-05-01T00:56:37.835Z,47.53
2023-05-01T00:57:37.780Z,47.05
2023-05-01T00:58:37.829Z,47.21
2023-05-01T00:59:37.789Z,47.21
2023-05-01T01:00:37.776Z,46.89
2023-05-01T01:01:37.932Z,47.05
2023-05-01T01:02:37.803Z,47.21
2023-05-01T01:03:37.758Z,47.05
2023-05-01T01:04:37.812Z,47.37
2023-05-01T01:05:37.743Z,47.21
2023-05-01T01:06:37.825Z,47.05
2023-05-01T01:07:37.728Z,46.89
2023-05-01T01:08:37.724Z,46.89
2023-05-01T01:09:37.744Z,47.05
2023-05-01T01:10:37.712Z,47.21
2023-05-01T01:11:37.716Z,47.05
2023-05-01T01:12:37.695Z,47.21
2023-05-01T01:13:37.686Z,46.73
2023-05-01T01:14:37.677Z,46.25
2023-05-01T01:15:37.684Z,46.25
2023-05-01T01:16:37.817Z,46.41
2023-05-01T01:17:37.713Z,46.89
2023-05-01T01:18:37.648Z,46.25
2023-05-01T01:19:37.659Z,46.57
2023-05-01T01:20:37.634Z,46.89
2023-05-01T01:21:37.656Z,47.05
2023-05-01T01:22:37.619Z,47.21
2023-05-01T01:23:37.604Z,46.89
2023-05-01T01:24:37.612Z,46.73
2023-05-01T01:25:37.648Z,46.57
2023-05-01T01:26:37.610Z,46.73
2023-05-01T01:27:37.583Z,47.21
2023-05-01T01:28:37.580Z,47.37
2023-05-01T01:29:37.583Z,47.21
2023-05-01T01:30:37.605Z,47.21
2023-05-01T01:31:37.680Z,47.05
2023-05-01T01:32:37.562Z,47.53
2023-05-01T01:33:37.556Z,47.05
2023-05-01T01:34:37.523Z,47.05
2023-05-01T01:35:37.529Z,46.73
2023-05-01T01:36:37.541Z,47.05
2023-05-01T01:37:37.520Z,47.05
2023-05-01T01:38:37.522Z,46.57
2023-05-01T01:39:37.491Z,46.57
2023-05-01T01:40:37.488Z,46.25
2023-05-01T01:41:37.530Z,46.89
2023-05-01T01:42:37.474Z,46.57
2023-05-01T01:43:37.476Z,46.73
2023-05-01T01:44:37.481Z,46.57
2023-05-01T01:45:37.475Z,46.89
2023-05-01T01:46:37.953Z,46.57
2023-05-01T01:47:37.525Z,46.25
2023-05-01T01:48:37.439Z,46.25
2023-05-01T01:49:37.427Z,46.73
2023-05-01T01:50:37.425Z,46.73
2023-05-01T01:51:37.445Z,46.57
2023-05-01T01:52:37.423Z,46.25
2023-05-01T01:53:37.398Z,46.73
2023-05-01T01:54:37.451Z,46.41
2023-05-01T01:55:37.385Z,46.57
2023-05-01T01:56:37.394Z,46.41
2023-05-01T01:57:37.388Z,46.89
2023-05-01T01:58:37.381Z,47.05
2023-05-01T01:59:37.365Z,46.25
2023-05-01T02:00:37.358Z,45.76
2023-05-01T02:01:37.404Z,46.08
2023-05-01T02:02:37.386Z,46.25
2023-05-01T02:03:37.415Z,46.57
2023-05-01T02:04:37.335Z,46.57
2023-05-01T02:05:37.315Z,46.73
2023-05-01T02:06:37.424Z,46.57
2023-05-01T02:07:37.314Z,46.41
2023-05-01T02:08:37.299Z,46.57
2023-05-01T02:09:37.293Z,46.57
2023-05-01T02:10:37.292Z,46.73
2023-05-01T02:11:37.314Z,47.05
2023-05-01T02:12:37.269Z,47.05
2023-05-01T02:13:37.264Z,46.25
2023-05-01T02:14:37.265Z,46.41
2023-05-01T02:15:37.235Z,46.73
2023-05-01T02:16:37.440Z,46.89
2023-05-01T02:17:37.317Z,46.89
2023-05-01T02:18:37.220Z,46.73
2023-05-01T02:19:37.223Z,46.89
2023-05-01T02:20:37.218Z,46.89
2023-05-01T02:21:37.247Z,46.89
2023-05-01T02:22:37.239Z,46.57
2023-05-01T02:23:37.216Z,46.73
2023-05-01T02:24:37.218Z,46.57
2023-05-01T02:25:37.184Z,46.73
2023-05-01T02:26:37.216Z,46.89
2023-05-01T02:27:37.175Z,47.05
2023-05-01T02:28:37.166Z,47.05
2023-05-01T02:29:37.150Z,46.89
2023-05-01T02:30:37.163Z,46.89
2023-05-01T02:31:37.262Z,47.21
2023-05-01T02:32:37.171Z,47.53
2023-05-01T02:33:37.141Z,47.86
2023-05-01T02:34:37.126Z,47.21
2023-05-01T02:35:37.122Z,47.53
2023-05-01T02:36:37.140Z,47.53
2023-05-01T02:37:37.110Z,46.89
2023-05-01T02:38:37.101Z,47.53
2023-05-01T02:39:37.107Z,46.89
2023-05-01T02:40:37.134Z,47.21
2023-05-01T02:41:37.110Z,47.37
2023-05-01T02:42:37.082Z,47.37
2023-05-01T02:43:37.092Z,47.70
2023-05-01T02:44:37.069Z,47.21
2023-05-01T02:45:37.075Z,47.37
2023-05-01T02:46:37.104Z,47.37
2023-05-01T02:47:37.129Z,47.37
2023-05-01T02:48:37.036Z,47.86
2023-05-01T02:49:37.036Z,48.02
2023-05-01T02:50:37.015Z,47.86
2023-05-01T02:51:37.041Z,47.70
2023-05-01T02:52:37.000Z,47.70
2023-05-01T02:53:37.006Z,47.37
2023-05-01T02:54:36.989Z,47.70
2023-05-01T02:55:36.985Z,48.02
2023-05-01T02:56:37.004Z,47.86
2023-05-01T02:57:36.965Z,48.18
2023-05-01T02:58:36.965Z,47.86
2023-05-01T02:59:36.968Z,47.37
2023-05-01T03:00:36.955Z,47.70
2023-05-01T03:01:37.002Z,47.53
2023-05-01T03:02:37.013Z,47.37
2023-05-01T03:03:36.917Z,47.05
2023-05-01T03:04:37.011Z,46.89
2023-05-01T03:05:36.900Z,47.37
2023-05-01T03:06:37.001Z,47.70
2023-05-01T03:07:36.962Z,47.05
2023-05-01T03:08:36.889Z,47.53
2023-05-01T03:09:36.910Z,47.37
2023-05-01T03:10:37.878Z,47.70
2023-05-01T03:11:36.911Z,47.86
2023-05-01T03:12:36.866Z,47.86
2023-05-01T03:13:36.865Z,48.82
2023-05-01T03:14:36.874Z,48.82
2023-05-01T03:15:36.857Z,48.34
2023-05-01T03:16:36.916Z,48.98
2023-05-01T03:17:36.852Z,48.66
2023-05-01T03:18:36.842Z,47.70
2023-05-01T03:19:36.831Z,48.34
2023-05-01T03:20:36.829Z,48.66
2023-05-01T03:21:36.816Z,48.34
2023-05-01T03:22:36.862Z,48.82
2023-05-01T03:23:36.788Z,48.82
2023-05-01T03:24:36.780Z,48.18
2023-05-01T03:25:36.784Z,48.18
2023-05-01T03:26:36.802Z,48.50
2023-05-01T03:27:36.771Z,48.50
2023-05-01T03:28:36.772Z,48.34
2023-05-01T03:29:36.777Z,48.02
2023-05-01T03:30:36.745Z,48.34
2023-05-01T03:31:36.814Z,48.02
2023-05-01T03:32:36.726Z,48.02
2023-05-01T03:33:36.718Z,48.02
2023-05-01T03:34:36.704Z,47.70
2023-05-01T03:35:36.780Z,47.70
2023-05-01T03:36:36.735Z,47.86
2023-05-01T03:37:36.690Z,48.02
2023-05-01T03:38:36.686Z,47.70
2023-05-01T03:39:36.669Z,47.70
2023-05-01T03:40:36.681Z,47.21
2023-05-01T03:41:36.684Z,48.02
2023-05-01T03:42:36.649Z,48.02
2023-05-01T03:43:36.848Z,47.53
2023-05-01T03:44:36.641Z,47.86
2023-05-01T03:45:36.651Z,47.86
2023-05-01T03:46:36.789Z,48.02
2023-05-01T03:47:36.822Z,47.86
2023-05-01T03:48:36.741Z,47.86
2023-05-01T03:49:36.647Z,47.37
2023-05-01T03:50:36.676Z,47.53
2023-05-01T03:51:36.636Z,47.70
2023-05-01T03:52:36.664Z,47.86
2023-05-01T03:53:36.714Z,47.53
2023-05-01T03:54:36.655Z,47.70
2023-05-01T03:55:37.535Z,47.70
2023-05-01T03:56:36.628Z,47.05
2023-05-01T03:57:36.576Z,47.05
2023-05-01T03:58:36.574Z,47.21
2023-05-01T03:59:37.519Z,47.37
2023-05-01T04:00:36.648Z,47.37
2023-05-01T04:01:36.630Z,47.37
2023-05-01T04:02:36.717Z,47.21
2023-05-01T04:03:36.634Z,47.53
2023-05-01T04:04:36.608Z,47.53
2023-05-01T04:05:36.505Z,47.70
2023-05-01T04:06:36.493Z,47.86
2023-05-01T04:07:36.460Z,47.37
2023-05-01T04:08:36.482Z,47.70
2023-05-01T04:09:36.455Z,47.53
2023-05-01T04:10:36.441Z,47.53
2023-05-01T04:11:36.447Z,47.37
2023-05-01T04:12:36.429Z,47.37
2023-05-01T04:13:36.418Z,47.53
2023-05-01T04:14:36.416Z,47.53
2023-05-01T04:15:36.474Z,47.53
2023-05-01T04:16:36.585Z,47.37
2023-05-01T04:17:36.473Z,47.05
2023-05-01T04:18:36.400Z,46.73
2023-05-01T04:19:36.391Z,46.73
2023-05-01T04:20:36.383Z,47.05
2023-05-01T04:21:36.393Z,46.73
2023-05-01T04:22:36.350Z,46.57
2023-05-01T04:23:36.339Z,46.89
2023-05-01T04:24:37.346Z,46.89
2023-05-01T04:25:36.350Z,47.53
2023-05-01T04:26:36.375Z,47.37
2023-05-01T04:27:36.344Z,47.05
2023-05-01T04:28:36.313Z,47.37
2023-05-01T04:29:36.323Z,47.37
2023-05-01T04:30:36.364Z,47.53
2023-05-01T04:31:36.648Z,47.70
2023-05-01T04:32:36.294Z,48.02
2023-05-01T04:33:36.290Z,47.37
2023-05-01T04:34:36.270Z,47.70
2023-05-01T04:35:36.306Z,47.53
2023-05-01T04:36:36.269Z,47.53
2023-05-01T04:37:36.302Z,47.21
2023-05-01T04:38:36.250Z,47.53
2023-05-01T04:39:36.492Z,47.37
2023-05-01T04:40:36.239Z,47.37
2023-05-01T04:41:36.239Z,47.70
2023-05-01T04:42:36.212Z,47.37
2023-05-01T04:43:36.210Z,46.89
2023-05-01T04:44:36.202Z,47.21
2023-05-01T04:45:36.200Z,46.57
2023-05-01T04:46:36.264Z,45.44
2023-05-01T04:47:36.246Z,46.25
2023-05-01T04:48:36.177Z,46.25
2023-05-01T04:49:36.179Z,46.57
2023-05-01T04:50:36.172Z,47.53
2023-05-01T04:51:36.187Z,47.53
2023-05-01T04:52:36.141Z,47.37
2023-05-01T04:53:36.148Z,47.21
2023-05-01T04:54:36.129Z,47.53
2023-05-01T04:55:36.128Z,47.21
2023-05-01T04:56:36.136Z,47.53
2023-05-01T04:57:36.118Z,47.05
2023-05-01T04:58:36.109Z,47.21
2023-05-01T04:59:36.099Z,46.73
2023-05-01T05:00:36.085Z,46.08
2023-05-01T05:01:36.157Z,46.41
2023-05-01T05:02:36.181Z,46.41
2023-05-01T05:03:36.275Z,46.73
2023-05-01T05:04:36.076Z,47.05
2023-05-01T05:05:36.061Z,46.41
2023-05-01T05:06:36.108Z,47.37
2023-05-01T05:07:36.042Z,47.53
2023-05-01T05:08:36.042Z,47.37
2023-05-01T05:09:36.028Z,46.73
2023-05-01T05:10:36.022Z,46.25
2023-05-01T05:11:36.032Z,46.73
2023-05-01T05:12:36.024Z,46.41
2023-05-01T05:13:36.001Z,46.08
2023-05-01T05:14:35.990Z,46.41
2023-05-01T05:15:35.988Z,46.73
2023-05-01T05:16:36.059Z,46.57
2023-05-01T05:17:36.018Z,46.57
2023-05-01T05:18:36.970Z,46.41
2023-05-01T05:19:35.977Z,46.41
2023-05-01T05:20:35.972Z,45.92
2023-05-01T05:21:35.955Z,46.08
2023-05-01T05:22:35.951Z,46.57
2023-05-01T05:23:35.945Z,46.25
2023-05-01T05:24:35.938Z,45.92
2023-05-01T05:25:36.939Z,46.25
2023-05-01T05:26:35.924Z,46.25
2023-05-01T05:27:35.906Z,46.57
2023-05-01T05:28:35.915Z,46.57
2023-05-01T05:29:35.890Z,46.57
2023-05-01T05:30:35.887Z,46.57
2023-05-01T05:31:35.914Z,46.57
2023-05-01T05:32:35.947Z,46.41
2023-05-01T05:33:35.879Z,46.41
2023-05-01T05:34:35.874Z,46.73
2023-05-01T05:35:35.856Z,46.57
2023-05-01T05:36:35.872Z,46.41
2023-05-01T05:37:35.845Z,46.08
2023-05-01T05:38:35.831Z,46.57
2023-05-01T05:39:35.830Z,46.25
2023-05-01T05:40:35.810Z,46.89
2023-05-01T05:41:35.827Z,46.41
2023-05-01T05:42:35.803Z,46.73
2023-05-01T05:43:35.801Z,45.92
2023-05-01T05:44:35.817Z,46.41
2023-05-01T05:45:35.954Z,46.41
2023-05-01T05:46:35.810Z,47.05
2023-05-01T05:47:35.808Z,46.08
2023-05-01T05:48:35.753Z,46.08
2023-05-01T05:49:35.757Z,46.08
2023-05-01T05:50:35.746Z,46.57
2023-05-01T05:51:35.761Z,46.73
2023-05-01T05:52:35.805Z,46.41
2023-05-01T05:53:35.821Z,46.08
2023-05-01T05:54:35.736Z,46.25
2023-05-01T05:55:35.722Z,45.44
2023-05-01T05:56:35.732Z,45.44
2023-05-01T05:57:35.716Z,45.76
2023-05-01T05:58:35.703Z,45.60
2023-05-01T05:59:35.708Z,45.44
2023-05-01T06:00:35.690Z,45.60
2023-05-01T06:01:35.704Z,46.08
2023-05-01T06:02:35.803Z,45.44
2023-05-01T06:03:35.892Z,45.12
2023-05-01T06:04:35.680Z,44.96
2023-05-01T06:05:35.692Z,45.76
2023-05-01T06:06:35.741Z,45.28
2023-05-01T06:07:35.660Z,46.41
2023-05-01T06:08:35.649Z,45.44
2023-05-01T06:09:35.618Z,44.79
2023-05-01T06:10:36.615Z,45.12
2023-05-01T06:11:35.642Z,45.12
2023-05-01T06:12:37.565Z,45.76
2023-05-01T06:13:36.609Z,45.60
2023-05-01T06:14:35.600Z,45.44
2023-05-01T06:15:35.643Z,45.44
2023-05-01T06:16:35.711Z,44.63
2023-05-01T06:17:35.625Z,44.63
2023-05-01T06:18:35.566Z,45.12
2023-05-01T06:19:35.563Z,44.79
2023-05-01T06:20:35.588Z,44.96
2023-05-01T06:21:35.600Z,45.12
2023-05-01T06:22:35.541Z,45.12
2023-05-01T06:23:35.531Z,44.96
2023-05-01T06:24:35.526Z,44.96
2023-05-01T06:25:35.548Z,44.79
2023-05-01T06:26:35.550Z,45.28
2023-05-01T06:27:35.493Z,45.44
2023-05-01T06:28:35.494Z,45.60
2023-05-01T06:29:35.496Z,44.47
2023-05-01T06:30:35.483Z,44.79
2023-05-01T06:31:35.531Z,45.92
2023-05-01T06:32:35.506Z,44.96
2023-05-01T06:33:35.538Z,44.47
2023-05-01T06:34:35.461Z,43.83
2023-05-01T06:35:35.436Z,44.96
2023-05-01T06:36:35.457Z,44.79
2023-05-01T06:37:35.428Z,44.63
2023-05-01T06:38:35.417Z,45.44
2023-05-01T06:39:35.454Z,45.60
2023-05-01T06:40:35.403Z,45.60
2023-05-01T06:41:35.417Z,44.96
2023-05-01T06:42:35.405Z,44.79
2023-05-01T06:43:35.384Z,45.12
2023-05-01T06:44:35.374Z,44.47
2023-05-01T06:45:35.374Z,44.96
2023-05-01T06:46:35.421Z,44.96
2023-05-01T06:47:35.394Z,44.96
2023-05-01T06:48:35.363Z,44.96
2023-05-01T06:49:35.343Z,44.63
2023-05-01T06:50:35.334Z,44.79
2023-05-01T06:51:35.383Z,44.31
2023-05-01T06:52:35.322Z,45.76
2023-05-01T06:53:35.373Z,45.28
2023-05-01T06:54:35.317Z,45.28
2023-05-01T06:55:35.991Z,44.31
2023-05-01T06:56:36.321Z,45.44
2023-05-01T06:57:35.296Z,43.99
2023-05-01T06:58:35.282Z,44.63
2023-05-01T06:59:35.268Z,44.79
2023-05-01T07:00:35.297Z,44.47
2023-05-01T07:01:35.727Z,44.63
2023-05-01T07:02:36.372Z,43.83
2023-05-01T07:03:35.288Z,43.99
2023-05-01T07:04:35.249Z,44.79
2023-05-01T07:05:35.242Z,43.83
2023-05-01T07:06:35.281Z,44.31
2023-05-01T07:07:35.239Z,44.31
2023-05-01T07:08:35.211Z,44.47
2023-05-01T07:09:35.202Z,44.63
2023-05-01T07:10:35.196Z,43.99
2023-05-01T07:11:35.247Z,44.63
2023-05-01T07:12:35.205Z,43.99
2023-05-01T07:13:35.184Z,44.15
2023-05-01T07:14:35.182Z,44.79
2023-05-01T07:15:35.162Z,44.63
2023-05-01T07:16:35.224Z,45.44
2023-05-01T07:17:35.193Z,45.12
2023-05-01T07:18:35.159Z,45.28
2023-05-01T07:19:35.141Z,45.76
2023-05-01T07:20:35.145Z,46.41
2023-05-01T07:21:35.170Z,45.44
2023-05-01T07:22:35.107Z,45.76
2023-05-01T07:23:35.114Z,46.08
2023-05-01T07:24:35.106Z,46.73
2023-05-01T07:25:35.098Z,45.44
2023-05-01T07:26:35.124Z,45.44
2023-05-01T07:27:35.108Z,46.25
2023-05-01T07:28:35.071Z,45.76
2023-05-01T07:29:35.073Z,46.41
2023-05-01T07:30:35.484Z,46.25
2023-05-01T07:31:35.256Z,46.41
2023-05-01T07:32:35.140Z,46.57
2023-05-01T07:33:35.060Z,44.96
2023-05-01T07:34:35.046Z,46.41
2023-05-01T07:35:35.039Z,45.76
2023-05-01T07:36:35.041Z,46.41
2023-05-01T07:37:35.012Z,46.25
2023-05-01T07:38:35.221Z,45.76
2023-05-01T07:39:35.010Z,45.92
2023-05-01T07:40:34.992Z,45.60
2023-05-01T07:41:34.991Z,44.63
2023-05-01T07:42:35.016Z,45.44
2023-05-01T07:43:34.977Z,45.92
2023-05-01T07:44:34.960Z,46.41
2023-05-01T07:45:34.970Z,46.57
2023-05-01T07:46:35.081Z,45.76
2023-05-01T07:47:34.971Z,46.41
2023-05-01T07:48:35.628Z,47.21
2023-05-01T07:49:34.926Z,46.73
2023-05-01T07:50:34.929Z,46.41
2023-05-01T07:51:34.915Z,46.25
2023-05-01T07:52:34.918Z,46.25
2023-05-01T07:53:34.903Z,44.96
2023-05-01T07:54:34.879Z,46.41
2023-05-01T07:55:34.878Z,46.41
2023-05-01T07:56:34.871Z,46.89
2023-05-01T07:57:34.868Z,47.05
2023-05-01T07:58:35.861Z,46.73
2023-05-01T07:59:34.857Z,47.05
2023-05-01T08:00:34.845Z,46.57
2023-05-01T08:01:34.857Z,46.25
2023-05-01T08:02:35.003Z,46.41
2023-05-01T08:03:34.929Z,46.73
2023-05-01T08:04:34.848Z,46.57
2023-05-01T08:05:34.808Z,45.92
2023-05-01T08:06:34.884Z,45.76
2023-05-01T08:07:34.814Z,46.08
2023-05-01T08:08:34.809Z,45.28
2023-05-01T08:09:34.952Z,45.28
2023-05-01T08:10:34.788Z,46.41
2023-05-01T08:11:34.779Z,45.60
2023-05-01T08:12:34.811Z,46.25
2023-05-01T08:13:34.762Z,46.41
2023-05-01T08:14:34.771Z,45.60
2023-05-01T08:15:34.741Z,45.12
2023-05-01T08:16:34.798Z,45.12
2023-05-01T08:17:34.789Z,45.44
2023-05-01T08:18:34.729Z,45.12
2023-05-01T08:19:34.732Z,45.12
2023-05-01T08:20:34.714Z,45.92
2023-05-01T08:21:34.738Z,45.12
2023-05-01T08:22:34.700Z,45.12
2023-05-01T08:23:34.718Z,45.12
2023-05-01T08:24:34.686Z,45.28
2023-05-01T08:25:34.686Z,45.12
2023-05-01T08:26:34.688Z,45.76
2023-05-01T08:27:34.672Z,45.12
2023-05-01T08:28:34.656Z,45.12
2023-05-01T08:29:34.654Z,45.44
2023-05-01T08:30:34.650Z,45.44
2023-05-01T08:31:34.715Z,45.12
2023-05-01T08:32:34.655Z,44.79
2023-05-01T08:33:34.628Z,44.47
2023-05-01T08:34:34.618Z,45.28
2023-05-01T08:35:34.612Z,45.44
2023-05-01T08:36:34.624Z,45.44
2023-05-01T08:37:34.606Z,45.28
2023-05-01T08:38:34.599Z,44.63
2023-05-01T08:39:34.591Z,45.28
2023-05-01T08:40:34.578Z,45.44
2023-05-01T08:41:34.602Z,45.12
2023-05-01T08:42:34.562Z,44.96
2023-05-01T08:43:34.559Z,45.12
2023-05-01T08:44:34.561Z,44.79
2023-05-01T08:45:34.552Z,44.96
2023-05-01T08:46:34.589Z,44.96
2023-05-01T08:47:34.542Z,44.63
2023-05-01T08:48:34.516Z,45.12
2023-05-01T08:49:34.512Z,44.96
2023-05-01T08:50:34.502Z,45.60
2023-05-01T08:51:34.513Z,45.60
2023-05-01T08:52:34.487Z,45.28
2023-05-01T08:53:34.487Z,44.96
2023-05-01T08:54:34.473Z,44.96
2023-05-01T08:55:34.460Z,44.31
2023-05-01T08:56:34.487Z,44.96
2023-05-01T08:57:34.461Z,44.47
2023-05-01T08:58:34.443Z,45.12
2023-05-01T08:59:34.442Z,44.96
2023-05-01T09:00:34.462Z,44.96
2023-05-01T09:01:34.446Z,44.79
2023-05-01T09:02:34.443Z,45.44
2023-05-01T09:03:34.497Z,44.63
2023-05-01T09:04:34.393Z,44.79
2023-05-01T09:05:34.395Z,44.96
2023-05-01T09:06:34.436Z,44.47
2023-05-01T09:07:34.373Z,44.31
2023-05-01T09:08:34.367Z,44.79
2023-05-01T09:09:34.386Z,43.99
2023-05-01T09:10:34.372Z,44.63
2023-05-01T09:11:34.370Z,44.96
2023-05-01T09:12:34.338Z,44.47
2023-05-01T09:13:34.349Z,44.79
2023-05-01T09:14:34.324Z,44.15
2023-05-01T09:15:34.322Z,44.31
2023-05-01T09:16:34.356Z,44.79
2023-05-01T09:17:34.339Z,43.67
2023-05-01T09:18:34.296Z,44.79
2023-05-01T09:19:34.285Z,44.96
2023-05-01T09:20:34.273Z,44.15
2023-05-01T09:21:34.298Z,44.47
2023-05-01T09:22:34.291Z,44.96
2023-05-01T09:23:34.260Z,43.99
2023-05-01T09:24:34.269Z,45.44
2023-05-01T09:25:34.261Z,44.31
2023-05-01T09:26:34.258Z,44.31
2023-05-01T09:27:34.311Z,44.47
2023-05-01T09:28:34.243Z,44.96
2023-05-01T09:29:34.227Z,44.15
2023-05-01T09:30:34.245Z,44.47
2023-05-01T09:31:34.296Z,43.99
2023-05-01T09:32:34.218Z,44.63
2023-05-01T09:33:34.191Z,44.79
2023-05-01T09:34:34.181Z,45.28
2023-05-01T09:35:34.184Z,44.47
2023-05-01T09:36:34.185Z,44.47
2023-05-01T09:37:34.189Z,44.96
2023-05-01T09:38:34.166Z,44.63
2023-05-01T09:39:34.141Z,43.51
2023-05-01T09:40:34.148Z,44.63
2023-05-01T09:41:34.125Z,43.99
2023-05-01T09:42:35.144Z,43.99
2023-05-01T09:43:35.134Z,43.99
2023-05-01T09:44:34.099Z,43.51
2023-05-01T09:45:34.121Z,43.67
2023-05-01T09:46:34.159Z,42.70
2023-05-01T09:47:34.179Z,44.15
2023-05-01T09:48:35.277Z,43.67
2023-05-01T09:49:35.062Z,43.67
2023-05-01T09:50:34.092Z,42.54
2023-05-01T09:51:34.052Z,43.02
2023-05-01T09:52:34.065Z,42.54
2023-05-01T09:53:34.045Z,42.38
2023-05-01T09:54:34.031Z,41.73
2023-05-01T09:55:34.034Z,42.38
2023-05-01T09:56:34.276Z,42.86
2023-05-01T09:57:34.017Z,42.86
2023-05-01T09:58:34.022Z,44.15
2023-05-01T09:59:33.991Z,43.02
2023-05-01T10:00:34.005Z,43.83
2023-05-01T10:01:34.019Z,43.51
2023-05-01T10:02:34.076Z,42.86
2023-05-01T10:03:34.072Z,42.70
2023-05-01T10:04:33.977Z,42.70
2023-05-01T10:05:33.964Z,41.25
2023-05-01T10:06:34.024Z,42.54
2023-05-01T10:07:33.958Z,42.38
2023-05-01T10:08:33.943Z,42.54
2023-05-01T10:09:33.975Z,42.70
2023-05-01T10:10:33.940Z,42.54
2023-05-01T10:11:33.950Z,43.51
2023-05-01T10:12:33.906Z,42.70
2023-05-01T10:13:33.903Z,43.83
2023-05-01T10:14:33.899Z,43.99
2023-05-01T10:15:33.886Z,42.86
2023-05-01T10:16:33.902Z,40.93
2023-05-01T10:17:33.919Z,41.41
2023-05-01T10:18:33.870Z,43.67
2023-05-01T10:19:33.869Z,43.99
2023-05-01T10:20:33.905Z,43.34
2023-05-01T10:21:33.884Z,42.54
2023-05-01T10:22:33.842Z,42.22
2023-05-01T10:23:33.833Z,41.41
2023-05-01T10:24:33.818Z,41.25
2023-05-01T10:25:33.835Z,41.89
2023-05-01T10:26:33.809Z,42.54
2023-05-01T10:27:33.826Z,42.06
2023-05-01T10:28:33.816Z,40.12
2023-05-01T10:29:33.788Z,39.96
2023-05-01T10:30:33.776Z,41.89
2023-05-01T10:31:33.855Z,41.41
2023-05-01T10:32:33.776Z,42.06
2023-05-01T10:33:33.757Z,41.57
2023-05-01T10:34:33.765Z,40.77
2023-05-01T10:35:34.760Z,39.64
2023-05-01T10:36:33.750Z,38.51
2023-05-01T10:37:33.777Z,40.12
2023-05-01T10:38:33.752Z,41.09
2023-05-01T10:39:33.794Z,41.41
2023-05-01T10:40:33.752Z,41.09
2023-05-01T10:41:33.710Z,40.61
2023-05-01T10:42:33.715Z,39.48
2023-05-01T10:43:33.700Z,39.32
2023-05-01T10:44:33.682Z,38.99
2023-05-01T10:45:34.009Z,37.71
2023-05-01T10:46:33.682Z,38.03
2023-05-01T10:47:33.698Z,38.35
2023-05-01T10:48:33.653Z,39.48
2023-05-01T10:49:33.653Z,39.16
2023-05-01T10:50:33.655Z,39.32
2023-05-01T10:51:33.639Z,37.54
2023-05-01T10:52:33.662Z,38.19
2023-05-01T10:53:33.632Z,38.19
2023-05-01T10:54:33.622Z,38.83
2023-05-01T10:55:33.614Z,38.51
2023-05-01T10:56:33.622Z,38.51
2023-05-01T10:57:33.614Z,37.87
2023-05-01T10:58:33.585Z,38.03
2023-05-01T10:59:33.596Z,37.38
2023-05-01T11:00:33.563Z,36.58
2023-05-01T11:01:33.667Z,36.90
2023-05-01T11:02:33.622Z,36.42
2023-05-01T11:03:33.561Z,37.54
2023-05-01T11:04:33.549Z,37.38
2023-05-01T11:05:38.604Z,36.74
2023-05-01T11:06:35.586Z,36.58
2023-05-01T11:07:33.550Z,37.06
2023-05-01T11:08:33.539Z,38.83
2023-05-01T11:09:33.516Z,36.74
2023-05-01T11:10:33.504Z,36.25
2023-05-01T11:11:33.526Z,36.58
2023-05-01T11:12:33.509Z,37.71
2023-05-01T11:13:33.484Z,37.06
2023-05-01T11:14:33.499Z,37.71
2023-05-01T11:15:33.468Z,38.03
2023-05-01T11:16:33.490Z,36.09
2023-05-01T11:17:33.531Z,36.25
2023-05-01T11:18:33.455Z,37.06
2023-05-01T11:19:33.454Z,37.22
2023-05-01T11:20:33.454Z,37.71
2023-05-01T11:21:33.450Z,37.06
2023-05-01T11:22:33.456Z,36.42
2023-05-01T11:23:33.442Z,36.09
2023-05-01T11:24:33.421Z,36.25
2023-05-01T11:25:33.407Z,36.42
2023-05-01T11:26:33.418Z,36.90
2023-05-01T11:27:33.402Z,37.22
2023-05-01T11:28:33.465Z,36.09
2023-05-01T11:29:34.328Z,36.74
2023-05-01T11:30:33.385Z,36.74
2023-05-01T11:31:33.392Z,36.58
2023-05-01T11:32:33.406Z,36.58
2023-05-01T11:33:33.353Z,36.42
2023-05-01T11:34:33.352Z,36.42
2023-05-01T11:35:33.342Z,35.93
2023-05-01T11:36:33.328Z,35.93
2023-05-01T11:37:33.344Z,36.74
2023-05-01T11:38:33.322Z,37.87
2023-05-01T11:39:33.315Z,37.06
2023-05-01T11:40:33.304Z,37.06
2023-05-01T11:41:33.287Z,38.03
2023-05-01T11:42:33.382Z,36.90
2023-05-01T11:43:33.297Z,35.77
2023-05-01T11:44:33.268Z,36.25
2023-05-01T11:45:33.333Z,35.45
2023-05-01T11:46:33.332Z,34.16
2023-05-01T11:47:33.283Z,34.97
2023-05-01T11:48:33.263Z,35.13
2023-05-01T11:49:33.234Z,34.16
2023-05-01T11:50:33.244Z,34.16
2023-05-01T11:51:33.231Z,34.00
2023-05-01T11:52:33.238Z,33.84
2023-05-01T11:53:33.212Z,33.35
2023-05-01T11:54:33.205Z,34.48
2023-05-01T11:55:33.211Z,33.84
2023-05-01T11:56:33.183Z,33.03
2023-05-01T11:57:33.238Z,36.74
2023-05-01T11:58:33.169Z,34.16
2023-05-01T11:59:33.169Z,38.19
2023-05-01T12:00:33.172Z,34.97
2023-05-01T12:01:33.152Z,37.22
2023-05-01T12:02:33.194Z,35.93
2023-05-01T12:03:33.163Z,35.29
2023-05-01T12:04:33.174Z,35.45
2023-05-01T12:05:33.138Z,36.42
2023-05-01T12:06:33.235Z,36.09
2023-05-01T12:07:33.123Z,34.32
2023-05-01T12:08:33.113Z,35.29
2023-05-01T12:09:33.104Z,36.74
2023-05-01T12:10:35.350Z,34.80
2023-05-01T12:11:34.098Z,33.35
2023-05-01T12:12:33.084Z,34.64
2023-05-01T12:13:34.068Z,34.80
2023-05-01T12:14:33.077Z,34.64
2023-05-01T12:15:33.069Z,35.13
2023-05-01T12:16:33.080Z,35.45
2023-05-01T12:17:33.158Z,36.74
2023-05-01T12:18:33.047Z,35.77
2023-05-01T12:19:33.035Z,35.13
2023-05-01T12:20:33.077Z,35.61
2023-05-01T12:21:33.041Z,38.03
2023-05-01T12:22:33.092Z,36.74
2023-05-01T12:23:33.020Z,34.00
2023-05-01T12:24:33.007Z,35.45
2023-05-01T12:25:32.985Z,36.42
2023-05-01T12:26:32.987Z,35.93
2023-05-01T12:27:32.999Z,35.29
2023-05-01T12:28:32.972Z,34.97
2023-05-01T12:29:32.970Z,35.77
2023-05-01T12:30:32.964Z,34.64
2023-05-01T12:31:32.995Z,34.64
2023-05-01T12:32:33.154Z,34.97
2023-05-01T12:33:32.935Z,34.80
2023-05-01T12:34:32.930Z,33.03
2023-05-01T12:35:32.941Z,33.19
2023-05-01T12:36:32.915Z,32.87
2023-05-01T12:37:32.944Z,33.03
2023-05-01T12:38:32.892Z,31.74
2023-05-01T12:39:32.893Z,31.58
2023-05-01T12:40:32.889Z,34.48
2023-05-01T12:41:32.905Z,32.87
2023-05-01T12:42:32.888Z,33.84
2023-05-01T12:43:32.868Z,35.13
2023-05-01T12:44:32.861Z,35.93
2023-05-01T12:45:32.844Z,32.55
2023-05-01T12:46:32.886Z,31.26
2023-05-01T12:47:32.897Z,33.03
2023-05-01T12:48:32.836Z,31.58
2023-05-01T12:49:32.823Z,33.03
2023-05-01T12:50:32.836Z,32.39
2023-05-01T12:51:32.809Z,31.26
2023-05-01T12:52:32.810Z,32.07